Aérodrome :
LOGIN :

S'inscrire | Disclaimer

   EN    FR    IT 

 










Légende :    VFR   VFR Marginal   IFR   IFR Intensif   IFR Très Intensif
Visi : 
Plafond : 
>= 8 km
>= 3000ft
5 à 8 km
1000 à 3000 ft
1500m à 5 km
500 à 1000 ft
800 à 1500m
200 à 500 ft
< 800m
< 200 ft
Symboles :   Orages  Brouillard  Fortes neiges  Fortes précipitations  Vent > 20 kt
SIGMETs :   Divers  Orages  Givrage  Turbulence  Onde Orograph.  Cendres Volcan.






- Altitude de l'aérodrome : 236 ft
- Code IATA : MMX


ESMS - Malmö Sturup

DERNIER METAR :
  • 301920Z 06002KT 9999 FEW025 00/M02 Q1028 R17/09//95

METARs EXPIRÉS :
  • 301850Z 12004KT CAVOK 00/M02 Q1027 R17/09//95
  • 301820Z 14006KT CAVOK 01/M02 Q1026 R17/09//95
  • 301750Z 12004KT CAVOK 02/M03 Q1026 R17/09//95
  • 301720Z 09009KT CAVOK 02/M03 Q1025 R17/09//95
  • 301650Z 09010KT CAVOK 03/M04 Q1025 R17/09//95

TAF TAF ESMS
Valide du 30 à 18h jusqu'au 31 à 18h UTC


301701Z 3018/3118 07006KT CAVOK
BECMG 3111/3113 28010KT



MET'MAP, la Météo Aéronautique d'un coup d'oeil ! - Copyright ORBIFLY Décembre 2007 - Disclaimer

ORBIFLY MET'MAP TEAM :

Programmation & Développement : Alexandra Zaïnal
Sur une idée originale de : Baudouin d'Aumeries
Assistance à la programmation : Marc-Olivier Méhu
Soutien technique & logistique : Manuel Goepfert

Contact : metmap@orbifly.com




SOURCES & CREDITS :

   NOAA